Time;durP1;ratioP1;P1;durP2;ratioP2;P2;SDS_P1;SDS_P2;PMS_P1;PMS_P2;Temp;Humidity;BMP_temperature;BMP_pressure;BME280_temperature;BME280_humidity;BME280_pressure;Samples;Min_cycle;Max_cycle;Signal;HPM_P1;HPM_P2
2023/04/14 00:02:05;;;;;;;29.08;18.35;;;1.90;99.90;;;;;;5010144;28;20515;-76
2023/04/14 00:04:32;;;;;;;22.73;17.75;;;1.90;99.90;;;;;;4994997;28;20066;-78
2023/04/14 00:06:59;;;;;;;18.90;16.88;;;1.90;99.90;;;;;;5002193;28;20708;-75
2023/04/14 00:09:26;;;;;;;27.92;17.98;;;1.90;99.90;;;;;;5004297;28;20595;-75
2023/04/14 00:11:52;;;;;;;21.90;17.15;;;1.90;99.90;;;;;;5002503;28;20057;-76
2023/04/14 00:14:19;;;;;;;26.48;17.27;;;2.00;99.90;;;;;;5012395;28;20516;-77
2023/04/14 00:16:46;;;;;;;19.73;15.93;;;2.20;99.90;;;;;;4991022;28;20071;-75
2023/04/14 00:19:12;;;;;;;23.70;17.10;;;2.30;99.90;;;;;;4998402;28;20042;-76
2023/04/14 00:21:40;;;;;;;22.00;15.93;;;2.20;99.90;;;;;;5004738;28;20706;-76
2023/04/14 00:24:06;;;;;;;27.17;17.70;;;2.00;99.90;;;;;;4999025;28;20129;-77
2023/04/14 00:26:33;;;;;;;21.08;17.17;;;2.00;99.90;;;;;;4995347;28;20052;-76
2023/04/14 00:29:00;;;;;;;18.52;16.70;;;1.90;99.90;;;;;;4997985;28;20056;-76
2023/04/14 00:31:27;;;;;;;20.80;16.48;;;1.90;99.90;;;;;;4999911;28;20042;-77
2023/04/14 00:33:54;;;;;;;19.38;16.92;;;1.90;99.90;;;;;;5000510;28;20535;-76
2023/04/14 00:36:22;;;;;;;18.52;16.35;;;1.80;99.90;;;;;;5015004;28;20053;-76
2023/04/14 00:38:48;;;;;;;20.95;17.45;;;1.70;99.90;;;;;;5013104;28;20042;-75
2023/04/14 00:41:15;;;;;;;21.08;16.02;;;1.60;99.90;;;;;;4997567;28;20038;-76
2023/04/14 00:43:42;;;;;;;19.15;14.30;;;1.60;99.90;;;;;;4995535;28;20073;-77
2023/04/14 00:46:08;;;;;;;17.60;13.82;;;1.60;99.90;;;;;;4997277;28;20057;-76
2023/04/14 00:48:35;;;;;;;20.30;13.75;;;1.80;99.90;;;;;;5015249;28;20057;-76
2023/04/14 00:51:03;;;;;;;16.17;14.52;;;1.90;99.90;;;;;;5012694;28;20046;-76
2023/04/14 00:53:30;;;;;;;15.77;14.18;;;1.80;99.90;;;;;;5006357;28;20050;-75
2023/04/14 00:55:58;;;;;;;16.15;14.48;;;1.70;99.90;;;;;;5015670;28;20038;-77
2023/04/14 00:58:25;;;;;;;17.85;14.40;;;1.70;99.90;;;;;;5015233;28;20125;-77
2023/04/14 01:00:54;;;;;;;16.15;14.75;;;1.60;99.90;;;;;;4995482;28;20096;-77
2023/04/14 01:03:23;;;;;;;15.93;14.52;;;1.60;99.90;;;;;;4999235;28;20050;-75
2023/04/14 01:05:50;;;;;;;19.90;15.13;;;1.50;99.90;;;;;;4994466;28;20198;-76
2023/04/14 01:08:18;;;;;;;16.05;14.48;;;1.60;99.90;;;;;;4999967;28;20042;-76
2023/04/14 01:10:54;;;;;;;16.25;13.80;;;1.60;99.90;;;;;;5002585;28;20044;-76
2023/04/14 01:13:45;;;;;;;15.45;13.93;;;1.60;99.90;;;;;;4997412;28;20034;-76
2023/04/14 01:16:29;;;;;;;21.50;14.75;;;1.50;99.90;;;;;;4972275;28;20033;-76
2023/04/14 01:19:17;;;;;;;16.27;14.70;;;1.40;99.90;;;;;;5017223;28;20046;-77
2023/04/14 01:21:48;;;;;;;20.45;13.80;;;1.30;99.90;;;;;;4999270;28;20683;-76
2023/04/14 01:24:15;;;;;;;14.68;13.00;;;1.20;99.90;;;;;;4991217;28;20042;-75
2023/04/14 01:26:44;;;;;;;19.58;12.70;;;1.30;99.90;;;;;;5012183;28;20073;-77
2023/04/14 01:29:29;;;;;;;13.68;12.25;;;1.40;99.90;;;;;;5007619;28;20046;-78
2023/04/14 01:31:59;;;;;;;;;;;1.40;99.90;;;;;;5002050;28;20730;-77
2023/04/14 01:34:43;;;;;;;17.15;11.27;;;1.60;99.90;;;;;;4997346;28;20588;-76
2023/04/14 01:37:16;;;;;;;14.27;12.02;;;1.70;99.90;;;;;;5015703;28;20042;-77
2023/04/14 01:39:51;;;;;;;12.88;11.52;;;1.50;99.90;;;;;;5001752;28;20137;-76
2023/04/14 01:42:25;;;;;;;17.75;11.20;;;1.30;99.90;;;;;;4997165;28;20046;-78
2023/04/14 01:44:57;;;;;;;16.42;11.70;;;1.40;99.90;;;;;;4998258;28;20567;-76
2023/04/14 01:47:25;;;;;;;19.42;12.45;;;1.30;99.90;;;;;;5000133;28;20554;-76
2023/04/14 01:49:52;;;;;;;14.02;11.63;;;1.40;99.90;;;;;;5000803;28;20053;-76
2023/04/14 01:52:21;;;;;;;22.42;12.15;;;1.50;99.90;;;;;;5003366;28;20038;-75
2023/04/14 01:54:50;;;;;;;16.15;11.45;;;1.50;99.90;;;;;;4998892;28;20041;-75
2023/04/14 01:57:21;;;;;;;18.08;11.10;;;1.50;99.90;;;;;;5014862;28;20148;-77
2023/04/14 01:59:52;;;;;;;15.70;10.68;;;1.60;99.90;;;;;;4989762;28;20523;-77
2023/04/14 02:02:20;;;;;;;15.98;11.23;;;1.80;99.90;;;;;;4978969;28;20054;-76
2023/04/14 02:04:48;;;;;;;14.25;10.32;;;1.80;99.90;;;;;;5012111;28;20042;-78
2023/04/14 02:07:20;;;;;;;16.67;11.00;;;1.80;99.90;;;;;;5003188;28;20056;-77
2023/04/14 02:09:48;;;;;;;14.18;11.38;;;1.60;99.90;;;;;;4995810;28;20041;-77
2023/04/14 02:12:17;;;;;;;14.30;12.77;;;1.60;99.90;;;;;;5014627;28;20046;-76
2023/04/14 02:14:46;;;;;;;16.50;12.25;;;1.50;99.90;;;;;;5004098;28;20524;-77
2023/04/14 02:17:13;;;;;;;17.15;13.43;;;1.40;99.90;;;;;;5008334;28;20049;-76
2023/04/14 02:19:44;;;;;;;19.63;13.35;;;1.30;99.90;;;;;;4996245;28;20038;-77
2023/04/14 02:22:10;;;;;;;15.10;13.05;;;1.30;99.90;;;;;;5011005;28;20118;-76
2023/04/14 02:24:37;;;;;;;20.67;12.85;;;1.10;99.90;;;;;;5006858;28;20613;-76
2023/04/14 02:27:16;;;;;;;13.55;12.25;;;1.10;99.90;;;;;;5008572;28;20060;-76
2023/04/14 02:29:50;;;;;;;15.55;14.05;;;1.10;99.90;;;;;;5013034;28;20058;-76
2023/04/14 02:32:25;;;;;;;18.90;13.57;;;1.10;99.90;;;;;;4994969;28;20713;-75
2023/04/14 02:35:03;;;;;;;25.23;14.13;;;1.30;99.90;;;;;;4992855;28;20101;-75
2023/04/14 02:37:40;;;;;;;16.42;13.57;;;1.30;99.90;;;;;;4998551;28;20040;-77
2023/04/14 02:40:21;;;;;;;15.38;12.52;;;1.40;99.90;;;;;;5014199;28;20046;-77
2023/04/14 02:42:54;;;;;;;24.55;13.70;;;1.30;99.90;;;;;;5005536;28;20038;-77
2023/04/14 02:45:26;;;;;;;18.58;13.25;;;1.30;99.90;;;;;;4990491;28;20048;-77
2023/04/14 02:47:56;;;;;;;16.10;13.57;;;1.40;99.90;;;;;;4991841;28;20050;-76
2023/04/14 02:50:26;;;;;;;19.38;12.88;;;1.40;99.90;;;;;;4986912;28;20060;-78
2023/04/14 02:53:02;;;;;;;18.33;12.98;;;1.50;99.90;;;;;;4997899;28;20069;-76
2023/04/14 02:55:34;;;;;;;21.63;14.50;;;1.40;99.90;;;;;;4997165;28;20099;-76
2023/04/14 02:58:01;;;;;;;16.17;13.32;;;1.30;99.90;;;;;;4992304;28;20042;-75
2023/04/14 03:00:32;;;;;;;19.20;12.82;;;1.10;99.90;;;;;;4982256;28;20702;-74
2023/04/14 03:03:00;;;;;;;17.70;13.18;;;1.30;99.90;;;;;;4994605;28;20046;-76
2023/04/14 03:05:28;;;;;;;25.00;12.85;;;1.30;99.90;;;;;;4975975;28;20034;-77
2023/04/14 03:08:09;;;;;;;22.90;12.48;;;1.30;99.90;;;;;;4998120;28;20050;-77
2023/04/14 03:10:38;;;;;;;21.92;11.57;;;1.30;99.90;;;;;;4991377;28;20046;-77
2023/04/14 03:13:06;;;;;;;15.25;11.77;;;1.20;99.90;;;;;;4972807;28;20042;-76
2023/04/14 03:15:35;;;;;;;13.88;10.32;;;1.10;99.90;;;;;;4969833;28;20545;-75
2023/04/14 03:18:02;;;;;;;18.25;11.00;;;1.00;99.90;;;;;;4972396;28;20475;-76
2023/04/14 03:20:30;;;;;;;15.20;11.95;;;0.90;99.90;;;;;;4980210;28;20042;-76
2023/04/14 03:23:03;;;;;;;18.23;12.60;;;1.00;99.90;;;;;;4994796;28;20050;-76
2023/04/14 03:25:36;;;;;;;15.95;11.82;;;1.00;99.90;;;;;;4973350;28;20042;-78
2023/04/14 03:28:12;;;;;;;21.50;11.77;;;1.00;99.90;;;;;;4987856;28;20798;-78
2023/04/14 03:30:46;;;;;;;19.98;12.52;;;1.10;99.90;;;;;;4980302;28;20054;-76
2023/04/14 03:33:19;;;;;;;17.08;11.98;;;0.90;99.90;;;;;;4997633;28;20058;-76
2023/04/14 03:35:46;;;;;;;12.70;11.48;;;0.60;99.90;;;;;;4984769;28;20105;-78
2023/04/14 03:38:18;;;;;;;16.33;12.80;;;0.50;99.90;;;;;;4995524;28;20042;-78
2023/04/14 03:40:47;;;;;;;17.20;13.18;;;0.50;99.90;;;;;;4982887;28;20050;-76
2023/04/14 03:43:21;;;;;;;15.52;14.05;;;0.50;99.90;;;;;;5001293;28;20069;-75
2023/04/14 03:45:55;;;;;;;15.75;13.23;;;0.40;99.90;;;;;;4980885;28;20108;-75
2023/04/14 03:48:25;;;;;;;20.40;13.88;;;0.40;99.90;;;;;;4979462;28;20050;-77
2023/04/14 03:50:54;;;;;;;19.65;14.25;;;0.40;99.90;;;;;;4981039;28;20050;-76
2023/04/14 03:53:21;;;;;;;21.88;13.70;;;0.60;99.90;;;;;;4981707;28;20133;-77
2023/04/14 03:55:50;;;;;;;21.48;13.02;;;0.70;99.90;;;;;;4991739;28;20526;-76
2023/04/14 03:58:19;;;;;;;19.02;13.45;;;0.50;99.90;;;;;;4975018;28;20130;-77
2023/04/14 04:00:48;;;;;;;20.98;14.23;;;0.50;99.90;;;;;;4965719;28;20042;-77
2023/04/14 04:03:15;;;;;;;19.67;14.38;;;0.50;99.90;;;;;;4984421;28;20034;-77
2023/04/14 04:05:43;;;;;;;15.55;13.95;;;0.40;99.90;;;;;;5003075;28;20030;-76
2023/04/14 04:08:11;;;;;;;16.00;14.13;;;0.20;99.90;;;;;;4993307;28;20488;-77
2023/04/14 04:10:38;;;;;;;16.10;14.15;;;0.30;99.90;;;;;;4969411;28;20046;-76
2023/04/14 04:13:09;;;;;;;21.55;14.85;;;0.30;99.90;;;;;;4986707;28;20055;-76
2023/04/14 04:15:37;;;;;;;20.40;16.25;;;0.20;99.90;;;;;;4974866;28;20056;-76
2023/04/14 04:18:06;;;;;;;24.00;16.65;;;0.30;99.90;;;;;;4985345;28;20066;-76
2023/04/14 04:20:37;;;;;;;22.60;16.58;;;0.40;99.90;;;;;;4989123;28;20050;-76
2023/04/14 04:23:06;;;;;;;26.83;16.45;;;0.20;99.90;;;;;;4978546;28;20636;-77
2023/04/14 04:25:39;;;;;;;28.65;17.17;;;0.20;99.90;;;;;;4976799;28;20046;-77
2023/04/14 04:28:26;;;;;;;22.38;17.10;;;0.00;99.90;;;;;;4975251;28;20542;-77
2023/04/14 04:30:57;;;;;;;25.35;17.33;;;0.00;99.90;;;;;;4992298;28;20081;-76
2023/04/14 04:33:27;;;;;;;26.45;17.00;;;0.00;99.90;;;;;;4995776;28;20463;-77
2023/04/14 04:35:56;;;;;;;25.73;17.20;;;0.10;99.90;;;;;;4999847;28;20042;-76
2023/04/14 04:38:29;;;;;;;21.08;17.27;;;0.00;99.90;;;;;;4993604;28;20043;-77
2023/04/14 04:40:56;;;;;;;19.90;16.55;;;0.00;99.90;;;;;;4987520;28;20483;-78
2023/04/14 04:43:25;;;;;;;22.50;16.88;;;0.00;99.90;;;;;;4995269;28;20125;-77
2023/04/14 04:46:33;;;;;;;19.67;17.58;;;0.10;99.90;;;;;;4993534;28;20050;-77
2023/04/14 04:48:59;;;;;;;26.20;18.27;;;0.10;99.90;;;;;;4965577;28;20130;-77
2023/04/14 04:51:27;;;;;;;28.80;19.30;;;0.10;99.90;;;;;;4990171;28;20051;-76
2023/04/14 04:53:54;;;;;;;33.03;19.88;;;0.00;99.90;;;;;;4983040;28;20124;-78
2023/04/14 04:56:21;;;;;;;29.25;20.85;;;0.10;99.90;;;;;;4979931;28;20540;-77
2023/04/14 04:58:47;;;;;;;24.70;19.50;;;0.10;99.90;;;;;;4980899;28;20046;-76
2023/04/14 05:01:15;;;;;;;30.10;21.70;;;0.20;99.90;;;;;;4976495;28;20030;-77
2023/04/14 05:03:42;;;;;;;28.60;20.58;;;0.10;99.90;;;;;;4995974;28;20065;-76
2023/04/14 05:06:09;;;;;;;33.08;20.48;;;0.20;99.90;;;;;;4980435;28;20070;-77
2023/04/14 05:08:35;;;;;;;25.55;18.70;;;0.50;99.90;;;;;;4979395;28;20082;-76
2023/04/14 05:11:02;;;;;;;31.88;18.77;;;0.50;99.90;;;;;;4986402;28;20042;-77
2023/04/14 05:13:29;;;;;;;28.83;19.17;;;0.50;99.90;;;;;;5013669;28;20129;-76
2023/04/14 05:16:03;;;;;;;24.77;18.08;;;0.50;99.90;;;;;;4994061;28;20641;-75
2023/04/14 05:18:31;;;;;;;31.25;19.25;;;0.40;99.90;;;;;;4991679;28;20053;-76
2023/04/14 05:21:02;;;;;;;23.33;19.35;;;0.40;99.90;;;;;;4999540;28;20040;-75
2023/04/14 05:23:31;;;;;;;33.60;19.80;;;0.40;99.90;;;;;;5025982;28;20555;-76
2023/04/14 05:25:59;;;;;;;25.27;19.85;;;0.50;99.90;;;;;;4991349;28;20049;-75
2023/04/14 05:28:45;;;;;;;24.65;19.65;;;0.40;99.90;;;;;;4981828;28;20042;-76
2023/04/14 05:31:12;;;;;;;28.02;21.25;;;0.50;99.90;;;;;;5001856;28;20046;-75
2023/04/14 05:33:39;;;;;;;24.52;19.90;;;0.60;99.90;;;;;;4967374;28;20456;-76
2023/04/14 05:36:06;;;;;;;29.23;22.70;;;0.80;99.90;;;;;;5007242;28;20589;-76
2023/04/14 05:38:38;;;;;;;30.92;23.08;;;0.90;99.90;;;;;;4995449;28;20096;-77
2023/04/14 05:41:06;;;;;;;38.15;22.95;;;1.00;99.90;;;;;;4981522;28;20042;-77
2023/04/14 05:43:35;;;;;;;28.95;21.05;;;1.00;99.90;;;;;;4980081;28;20641;-77
2023/04/14 05:46:02;;;;;;;33.63;22.50;;;1.20;99.90;;;;;;5006588;28;20469;-75
2023/04/14 05:48:31;;;;;;;35.45;20.52;;;1.30;99.90;;;;;;4983750;28;20046;-76
2023/04/14 05:50:58;;;;;;;30.70;20.98;;;1.40;99.90;;;;;;4995739;28;20034;-75
2023/04/14 05:53:26;;;;;;;33.72;19.33;;;1.50;99.90;;;;;;4978634;28;20506;-76
2023/04/14 05:55:56;;;;;;;31.48;20.58;;;1.60;99.90;;;;;;4975123;28;20050;-76
2023/04/14 05:58:25;;;;;;;21.75;18.67;;;1.60;99.90;;;;;;4982097;28;20092;-75
2023/04/14 06:00:52;;;;;;;24.92;18.88;;;1.60;99.90;;;;;;4990851;28;20125;-75
2023/04/14 06:03:18;;;;;;;25.33;18.33;;;1.70;99.90;;;;;;4985133;28;20053;-76
2023/04/14 06:05:47;;;;;;;38.88;17.90;;;1.90;99.90;;;;;;4977481;28;20129;-75
2023/04/14 06:08:13;;;;;;;39.50;18.17;;;2.00;99.90;;;;;;4991040;28;20038;-76
2023/04/14 06:10:40;;;;;;;25.50;17.85;;;2.00;99.90;;;;;;4972012;28;20089;-75
2023/04/14 06:13:07;;;;;;;27.42;19.10;;;2.10;99.90;;;;;;4985969;28;20053;-77
2023/04/14 06:15:34;;;;;;;22.67;17.83;;;2.00;99.90;;;;;;4968468;28;20042;-76
2023/04/14 06:18:00;;;;;;;32.95;19.27;;;2.00;99.90;;;;;;4994676;28;20046;-75
2023/04/14 06:20:28;;;;;;;29.58;20.02;;;2.00;99.90;;;;;;4979964;28;20041;-75
2023/04/14 06:22:59;;;;;;;21.77;19.30;;;2.10;99.90;;;;;;4979603;28;20713;-76
2023/04/14 06:25:26;;;;;;;28.00;18.88;;;2.30;99.90;;;;;;4987765;28;20515;-76
2023/04/14 06:27:52;;;;;;;22.60;18.40;;;2.30;99.90;;;;;;4972806;28;20042;-77
2023/04/14 06:30:19;;;;;;;27.25;19.85;;;2.40;99.90;;;;;;4988849;28;20518;-76
2023/04/14 06:32:47;;;;;;;25.17;18.52;;;2.50;99.90;;;;;;4997538;28;20078;-76
2023/04/14 06:35:14;;;;;;;28.48;19.75;;;2.60;99.90;;;;;;5000374;28;20042;-75
2023/04/14 06:37:58;;;;;;;27.23;20.58;;;2.70;99.90;;;;;;4992478;28;20446;-77
2023/04/14 06:40:25;;;;;;;25.77;21.65;;;2.80;99.90;;;;;;4986372;28;20490;-75
2023/04/14 06:42:51;;;;;;;30.90;22.23;;;3.00;99.90;;;;;;4986739;28;20528;-77
2023/04/14 06:45:18;;;;;;;38.08;21.80;;;3.10;99.90;;;;;;4987380;28;20118;-75
2023/04/14 06:47:44;;;;;;;22.13;19.73;;;3.30;99.90;;;;;;4977760;28;20054;-77
2023/04/14 06:50:12;;;;;;;22.05;17.83;;;3.60;99.90;;;;;;4996580;28;20720;-75
2023/04/14 06:52:38;;;;;;;21.73;16.92;;;4.00;99.90;;;;;;4983693;28;20049;-75
2023/04/14 06:55:05;;;;;;;20.88;17.73;;;4.50;99.90;;;;;;4977503;28;20104;-75
2023/04/14 06:57:32;;;;;;;29.00;17.08;;;4.90;99.90;;;;;;4985996;28;20108;-75
2023/04/14 06:59:59;;;;;;;45.72;24.83;;;5.10;99.90;;;;;;4979078;28;20073;-76
2023/04/14 07:02:27;;;;;;;45.75;26.80;;;5.10;99.90;;;;;;4979326;28;20031;-74
2023/04/14 07:04:54;;;;;;;42.70;23.65;;;5.20;99.90;;;;;;4973841;28;20050;-79
2023/04/14 07:07:23;;;;;;;23.10;16.10;;;5.40;99.90;;;;;;4983858;28;20515;-76
2023/04/14 07:09:50;;;;;;;31.50;15.15;;;5.50;99.90;;;;;;4979112;28;20050;-76
2023/04/14 07:12:17;;;;;;;17.25;15.15;;;5.70;99.90;;;;;;4993110;28;20046;-76
2023/04/14 07:14:50;;;;;;;20.58;18.05;;;6.00;99.90;;;;;;4982386;28;20092;-75
2023/04/14 07:17:18;;;;;;;28.67;26.25;;;6.40;99.90;;;;;;4985503;28;20052;-76
2023/04/14 07:19:45;;;;;;;29.30;26.75;;;7.10;99.90;;;;;;4989836;28;20052;-77
2023/04/14 07:22:11;;;;;;;31.40;28.92;;;7.60;99.90;;;;;;4987770;28;20038;-75
2023/04/14 07:24:38;;;;;;;34.10;31.52;;;8.20;99.90;;;;;;4996575;28;20400;-75
2023/04/14 07:27:13;;;;;;;35.75;32.78;;;8.80;99.90;;;;;;4976475;28;20041;-75
2023/04/14 07:29:41;;;;;;;36.03;32.95;;;9.50;99.90;;;;;;4960951;28;20042;-74
2023/04/14 07:32:07;;;;;;;35.88;33.03;;;10.10;99.90;;;;;;4989206;28;20130;-76
2023/04/14 07:34:34;;;;;;;37.17;34.22;;;10.40;99.90;;;;;;4997359;28;20046;-75
2023/04/14 07:37:01;;;;;;;37.40;34.00;;;10.70;99.90;;;;;;4996671;28;20058;-75
2023/04/14 07:39:28;;;;;;;36.83;33.60;;;11.00;99.90;;;;;;4991711;28;20046;-77
2023/04/14 07:41:57;;;;;;;38.42;34.70;;;11.20;99.90;;;;;;4993941;28;20104;-75
2023/04/14 07:44:25;;;;;;;38.30;35.10;;;11.60;99.90;;;;;;5018076;28;20041;-77
2023/04/14 07:46:51;;;;;;;36.42;33.10;;;11.80;99.90;;;;;;5007423;28;20068;-75
2023/04/14 07:49:18;;;;;;;37.40;34.35;;;11.80;99.90;;;;;;4983333;28;20647;-75
2023/04/14 07:51:45;;;;;;;38.15;35.05;;;11.80;99.90;;;;;;4992287;28;20123;-76
2023/04/14 07:54:11;;;;;;;38.25;34.95;;;11.70;99.90;;;;;;4994154;28;20502;-74
2023/04/14 07:56:38;;;;;;;38.20;35.30;;;11.70;99.90;;;;;;4988729;28;20069;-75
2023/04/14 07:59:05;;;;;;;39.05;35.92;;;11.60;99.90;;;;;;5006580;28;20046;-74
2023/04/14 08:01:31;;;;;;;38.55;35.53;;;11.70;99.90;;;;;;4995159;28;20045;-73
2023/04/14 08:03:58;;;;;;;40.13;36.70;;;11.80;99.90;;;;;;4977064;28;20050;-76
2023/04/14 08:06:26;;;;;;;37.67;34.28;;;12.00;99.90;;;;;;4990952;28;20042;-74
2023/04/14 08:08:53;;;;;;;37.42;34.35;;;12.20;99.90;;;;;;4996559;28;20046;-75
2023/04/14 08:11:20;;;;;;;38.20;34.47;;;12.50;99.90;;;;;;5004166;28;20034;-72
2023/04/14 08:13:48;;;;;;;36.70;33.63;;;12.40;99.90;;;;;;5000847;28;20070;-74
2023/04/14 08:16:15;;;;;;;35.63;32.63;;;12.40;99.90;;;;;;5017411;28;20048;-75
2023/04/14 08:18:42;;;;;;;33.28;30.42;;;12.80;99.90;;;;;;5005370;28;20042;-73
2023/04/14 08:21:09;;;;;;;33.25;30.40;;;12.80;99.90;;;;;;5001337;28;20036;-73
2023/04/14 08:23:36;;;;;;;31.75;29.20;;;12.70;99.90;;;;;;4999787;28;20054;-75
2023/04/14 08:26:03;;;;;;;32.35;29.25;;;12.80;99.90;;;;;;5015710;28;20080;-74
2023/04/14 08:28:30;;;;;;;34.47;31.17;;;12.90;99.90;;;;;;5005363;28;20050;-74
2023/04/14 08:30:57;;;;;;;33.67;30.77;;;13.00;99.90;;;;;;4999317;28;20042;-73
2023/04/14 08:33:24;;;;;;;33.00;30.17;;;13.10;99.90;;;;;;4999949;28;20053;-75
2023/04/14 08:35:50;;;;;;;37.58;34.40;;;13.30;99.90;;;;;;4999423;28;20503;-75
2023/04/14 08:38:27;;;;;;;33.03;30.50;;;13.30;99.90;;;;;;4995489;28;20046;-74
2023/04/14 08:40:55;;;;;;;33.50;30.58;;;13.30;99.90;;;;;;4995813;28;20045;-74
2023/04/14 08:43:22;;;;;;;32.92;30.23;;;13.40;99.90;;;;;;5003569;28;20060;-75
2023/04/14 08:45:52;;;;;;;33.88;30.95;;;13.60;99.90;;;;;;4995308;28;20034;-74
2023/04/14 08:48:21;;;;;;;34.08;31.23;;;13.70;99.90;;;;;;4999618;28;20054;-74
2023/04/14 08:51:35;;;;;;;33.72;30.98;;;13.80;99.90;;;;;;4999716;28;20054;-72
2023/04/14 08:54:14;;;;;;;34.75;32.00;;;14.30;99.90;;;;;;4994348;28;20482;-72
2023/04/14 08:56:42;;;;;;;32.63;30.02;;;14.50;99.90;;;;;;5013718;28;20069;-74
2023/04/14 08:59:10;;;;;;;37.22;33.72;;;14.60;99.90;;;;;;4998437;28;20038;-74
2023/04/14 09:01:37;;;;;;;34.00;30.92;;;14.50;99.90;;;;;;4993996;28;20034;-74
2023/04/14 09:04:05;;;;;;;34.72;31.35;;;14.20;99.90;;;;;;4992867;28;20046;-73
2023/04/14 09:06:33;;;;;;;34.20;31.08;;;14.40;99.90;;;;;;4998608;28;20104;-74
2023/04/14 09:09:07;;;;;;;33.75;30.73;;;14.30;99.90;;;;;;4995991;28;20054;-73
2023/04/14 09:11:36;;;;;;;34.42;31.35;;;14.50;99.90;;;;;;5006100;28;20543;-74
2023/04/14 09:14:03;;;;;;;34.50;31.63;;;14.50;99.90;;;;;;4998203;28;20088;-73
2023/04/14 09:16:31;;;;;;;35.70;32.70;;;14.70;99.90;;;;;;5014234;28;20045;-73
2023/04/14 09:18:58;;;;;;;36.20;32.92;;;14.90;99.90;;;;;;5016849;28;20069;-73
2023/04/14 09:21:34;;;;;;;36.95;33.65;;;15.10;99.90;;;;;;5021440;28;20041;-75
2023/04/14 09:24:22;;;;;;;34.55;31.52;;;15.30;99.90;;;;;;4997229;28;20041;-74
2023/04/14 09:26:50;;;;;;;36.92;34.08;;;15.40;99.90;;;;;;4992728;28;20092;-75
2023/04/14 09:29:17;;;;;;;42.03;38.03;;;15.30;99.90;;;;;;5002698;28;20046;-75
2023/04/14 09:31:44;;;;;;;41.55;37.83;;;15.30;99.90;;;;;;5002365;28;20061;-75
2023/04/14 09:34:17;;;;;;;42.30;38.72;;;15.10;99.90;;;;;;5010222;28;20052;-75
2023/04/14 09:37:04;;;;;;;43.88;40.42;;;15.50;99.90;;;;;;4993496;28;20042;-73
2023/04/14 09:39:31;;;;;;;46.47;42.78;;;15.60;99.90;;;;;;5004956;28;20050;-72
2023/04/14 09:42:00;;;;;;;46.15;42.20;;;15.10;99.90;;;;;;4994327;28;20755;-74
2023/04/14 09:44:27;;;;;;;44.10;40.55;;;14.50;99.90;;;;;;5005361;28;20049;-74
2023/04/14 09:47:03;;;;;;;40.67;37.53;;;13.80;99.90;;;;;;4995034;28;20039;-73
2023/04/14 09:49:31;;;;;;;43.38;40.15;;;14.10;99.90;;;;;;4993312;28;20053;-73
2023/04/14 09:52:07;;;;;;;43.25;40.13;;;13.80;99.90;;;;;;4989344;28;20057;-74
2023/04/14 09:54:35;;;;;;;42.95;39.35;;;14.00;99.90;;;;;;4993994;28;20046;-74
2023/04/14 09:57:01;;;;;;;44.75;41.35;;;14.00;99.90;;;;;;4994388;28;20077;-75
2023/04/14 09:59:32;;;;;;;39.03;36.17;;;14.00;99.90;;;;;;5000526;28;20034;-74
2023/04/14 10:02:03;;;;;;;40.33;37.15;;;13.90;99.90;;;;;;4996247;28;20065;-74
2023/04/14 10:04:30;;;;;;;41.03;37.63;;;13.70;99.90;;;;;;4998088;28;20041;-75
2023/04/14 10:06:58;;;;;;;42.47;38.80;;;13.60;99.90;;;;;;4995958;28;20046;-75
2023/04/14 10:09:28;;;;;;;41.72;38.17;;;13.10;99.90;;;;;;4993663;28;20048;-74
2023/04/14 10:12:13;;;;;;;44.95;40.92;;;13.10;99.90;;;;;;4996304;28;20045;-75
2023/04/14 10:14:40;;;;;;;44.13;40.90;;;13.00;99.90;;;;;;4993271;28;20691;-74
2023/04/14 10:17:08;;;;;;;43.38;40.30;;;12.80;99.90;;;;;;5009345;28;20046;-74
2023/04/14 10:19:36;;;;;;;43.33;40.15;;;12.80;99.90;;;;;;4997145;28;20384;-75
2023/04/14 10:22:04;;;;;;;42.20;39.20;;;12.70;99.90;;;;;;4994117;28;20069;-73
2023/04/14 10:24:32;;;;;;;43.47;40.13;;;12.60;99.90;;;;;;5009045;28;20621;-74
2023/04/14 10:27:01;;;;;;;44.63;41.47;;;12.70;99.90;;;;;;4995175;28;20041;-73
2023/04/14 10:29:29;;;;;;;43.15;40.10;;;12.70;99.90;;;;;;4998762;28;20626;-75
2023/04/14 10:32:06;;;;;;;48.13;44.78;;;12.70;99.90;;;;;;5001600;28;20168;-74
2023/04/14 10:34:34;;;;;;;47.70;44.28;;;13.10;99.90;;;;;;4996000;28;20053;-74
2023/04/14 10:37:14;;;;;;;48.05;44.75;;;13.30;99.90;;;;;;5006570;28;20088;-74
2023/04/14 10:39:41;;;;;;;48.47;44.75;;;13.90;99.90;;;;;;4995362;28;20073;-73
2023/04/14 10:42:08;;;;;;;48.58;44.80;;;13.60;99.90;;;;;;4993217;28;20038;-75
2023/04/14 10:44:35;;;;;;;50.17;46.05;;;13.80;99.90;;;;;;4991030;28;20154;-73
2023/04/14 10:47:06;;;;;;;47.28;43.90;;;13.80;99.90;;;;;;4993836;28;20034;-75
2023/04/14 10:49:38;;;;;;;51.00;47.58;;;14.10;99.90;;;;;;4997896;28;20046;-74
2023/04/14 10:52:05;;;;;;;50.13;46.50;;;13.40;99.90;;;;;;4988936;28;20069;-74
2023/04/14 10:55:06;;;;;;;50.42;47.03;;;13.30;99.90;;;;;;4990981;28;20035;-74
2023/04/14 10:57:40;;;;;;;50.92;47.20;;;13.20;99.90;;;;;;4992870;28;20065;-75
2023/04/14 11:00:28;;;;;;;51.70;48.10;;;13.80;99.90;;;;;;4999186;28;20050;-75
2023/04/14 11:03:10;;;;;;;52.25;48.63;;;13.80;99.90;;;;;;5007247;28;20765;-75
2023/04/14 11:05:47;;;;;;;51.97;48.33;;;14.00;99.90;;;;;;5006290;28;20046;-73
2023/04/14 11:08:23;;;;;;;53.13;49.20;;;14.20;99.90;;;;;;4994500;28;20164;-74
2023/04/14 11:11:00;;;;;;;50.55;47.05;;;14.70;99.90;;;;;;4993074;28;20045;-73
2023/04/14 11:13:29;;;;;;;50.35;46.63;;;14.90;99.90;;;;;;4994154;28;20092;-72
2023/04/14 11:16:01;;;;;;;50.65;46.80;;;14.80;99.90;;;;;;4990409;28;20053;-74
2023/04/14 11:18:41;;;;;;;51.50;47.92;;;14.80;99.90;;;;;;4997968;28;20053;-73
2023/04/14 11:21:15;;;;;;;51.97;48.33;;;15.20;99.90;;;;;;4993739;28;20046;-74
2023/04/14 11:23:43;;;;;;;51.60;48.15;;;15.30;99.90;;;;;;5013277;28;20328;-74
2023/04/14 11:26:12;;;;;;;50.90;47.28;;;15.60;99.90;;;;;;4991732;28;20046;-74
2023/04/14 11:28:41;;;;;;;48.53;44.65;;;15.90;99.90;;;;;;5010953;28;20070;-75
2023/04/14 11:31:10;;;;;;;53.85;50.10;;;16.10;99.90;;;;;;4995139;28;20077;-73
2023/04/14 11:33:39;;;;;;;52.80;48.92;;;16.20;99.90;;;;;;4993681;28;20128;-73
2023/04/14 11:36:08;;;;;;;48.75;45.50;;;16.40;99.90;;;;;;4992181;28;20503;-75
2023/04/14 11:38:39;;;;;;;52.40;48.75;;;16.40;99.90;;;;;;4988516;28;20043;-76
2023/04/14 11:41:06;;;;;;;50.58;47.28;;;16.30;99.90;;;;;;4992093;28;20046;-72
2023/04/14 11:43:33;;;;;;;49.80;46.22;;;16.30;99.90;;;;;;5003901;28;20042;-75
2023/04/14 11:46:03;;;;;;;47.22;44.13;;;15.90;99.90;;;;;;4988445;28;20571;-75
2023/04/14 11:48:30;;;;;;;52.60;48.47;;;15.40;99.90;;;;;;5007841;28;20038;-74
2023/04/14 11:51:02;;;;;;;50.92;47.45;;;15.20;99.90;;;;;;5005872;28;20042;-75
2023/04/14 11:53:29;;;;;;;47.70;44.83;;;15.00;99.90;;;;;;4995298;28;20042;-74
2023/04/14 11:55:56;;;;;;;55.60;51.42;;;14.80;99.90;;;;;;4989873;28;20042;-75
2023/04/14 11:58:25;;;;;;;46.50;43.03;;;14.60;99.90;;;;;;5008766;28;20403;-74
2023/04/14 12:00:53;;;;;;;48.92;45.60;;;14.50;99.90;;;;;;5001562;28;20046;-73
2023/04/14 12:03:28;;;;;;;52.05;48.38;;;14.60;99.90;;;;;;4989537;28;20079;-76
2023/04/14 12:06:01;;;;;;;59.22;55.42;;;14.60;99.90;;;;;;4976010;28;20096;-74
2023/04/14 12:08:29;;;;;;;56.00;52.47;;;14.90;98.90;;;;;;4994844;28;20069;-75
2023/04/14 12:10:57;;;;;;;58.80;55.00;;;14.90;99.90;;;;;;5007473;28;20045;-73
2023/04/14 12:13:25;;;;;;;56.97;53.50;;;14.90;98.90;;;;;;4997362;28;20042;-75
2023/04/14 12:15:53;;;;;;;56.47;52.78;;;15.20;98.90;;;;;;4994591;28;20049;-74
2023/04/14 12:18:20;;;;;;;53.67;50.15;;;15.70;99.20;;;;;;4993912;28;20041;-76
2023/04/14 12:20:52;;;;;;;48.13;44.47;;;15.80;97.80;;;;;;5007980;28;20042;-74
2023/04/14 12:23:19;;;;;;;58.38;54.17;;;15.00;99.10;;;;;;4983354;28;20420;-72
2023/04/14 12:25:49;;;;;;;55.78;52.20;;;15.00;99.70;;;;;;4993833;28;20500;-75
2023/04/14 12:28:28;;;;;;;56.30;52.63;;;15.60;98.60;;;;;;4991699;28;20341;-74
2023/04/14 12:31:01;;;;;;;54.40;50.65;;;15.20;99.00;;;;;;4983189;28;20050;-71
2023/04/14 12:33:29;;;;;;;58.08;54.45;;;15.40;97.70;;;;;;4994430;28;20053;-75
2023/04/14 12:36:08;;;;;;;52.38;49.17;;;15.60;97.90;;;;;;4991968;28;20496;-72
2023/04/14 12:38:35;;;;;;;51.55;47.97;;;15.40;98.50;;;;;;4988612;28;20056;-74
2023/04/14 12:41:01;;;;;;;53.65;49.97;;;15.10;97.00;;;;;;4989152;28;20561;-73
2023/04/14 12:43:31;;;;;;;50.85;47.33;;;14.90;99.10;;;;;;4997619;28;20042;-73
2023/04/14 12:45:58;;;;;;;50.53;47.38;;;15.10;99.90;;;;;;4997714;28;20050;-72
2023/04/14 12:48:37;;;;;;;50.15;46.70;;;14.90;99.90;;;;;;4993852;28;20042;-73